createdAt,value
2023-01-03T00:02:00.720Z,12.47
2023-01-03T00:04:27.048Z,12.43
2023-01-03T00:06:53.331Z,12.44
2023-01-03T00:09:19.666Z,12.41
2023-01-03T00:11:46.025Z,12.44
2023-01-03T00:14:12.375Z,12.42
2023-01-03T00:16:38.815Z,12.41
2023-01-03T00:19:05.129Z,12.39
2023-01-03T00:21:31.478Z,12.37
2023-01-03T00:23:57.822Z,12.34
2023-01-03T00:26:24.138Z,12.35
2023-01-03T00:28:50.508Z,12.37
2023-01-03T00:31:16.878Z,12.31
2023-01-03T00:33:43.179Z,12.32
2023-01-03T00:36:09.549Z,12.24
2023-01-03T00:38:35.892Z,12.16
2023-01-03T00:41:02.217Z,12.06
2023-01-03T00:43:28.602Z,12.09
2023-01-03T00:45:54.989Z,12.14
2023-01-03T00:48:21.311Z,12.11
2023-01-03T00:50:47.638Z,12.13
2023-01-03T00:53:13.980Z,12.17
2023-01-03T00:55:40.302Z,12.19
2023-01-03T00:58:08.604Z,12.12
2023-01-03T01:00:33.059Z,12.10
2023-01-03T01:02:59.964Z,12.11
2023-01-03T01:05:26.087Z,12.11
2023-01-03T01:07:52.467Z,12.09
2023-01-03T01:10:18.823Z,12.01
2023-01-03T01:12:45.199Z,11.97
2023-01-03T01:15:11.526Z,12.03
2023-01-03T01:17:37.879Z,11.99
2023-01-03T01:20:04.243Z,11.97
2023-01-03T01:22:30.624Z,11.91
2023-01-03T01:24:56.985Z,11.90
2023-01-03T01:27:23.311Z,11.85
2023-01-03T01:29:49.685Z,11.84
2023-01-03T01:32:16.061Z,11.88
2023-01-03T01:34:42.392Z,11.83
2023-01-03T01:37:08.778Z,11.80
2023-01-03T01:39:35.136Z,11.77
2023-01-03T01:42:01.517Z,11.73
2023-01-03T01:44:27.843Z,11.61
2023-01-03T01:46:54.183Z,11.54
2023-01-03T01:49:20.498Z,11.54
2023-01-03T01:51:46.846Z,11.58
2023-01-03T01:54:13.215Z,11.60
2023-01-03T01:56:39.557Z,11.58
2023-01-03T01:59:05.914Z,11.58
2023-01-03T02:01:32.356Z,11.58
2023-01-03T02:03:58.585Z,11.58
2023-01-03T02:06:24.974Z,11.61
2023-01-03T02:08:51.338Z,11.55
2023-01-03T02:11:17.670Z,11.49
2023-01-03T02:13:44.029Z,11.48
2023-01-03T02:16:10.438Z,11.49
2023-01-03T02:18:36.756Z,11.53
2023-01-03T02:21:03.151Z,11.50
2023-01-03T02:23:29.503Z,11.53
2023-01-03T02:25:55.881Z,11.48
2023-01-03T02:28:22.271Z,11.43
2023-01-03T02:30:48.643Z,11.37
2023-01-03T02:33:14.932Z,11.30
2023-01-03T02:35:41.350Z,11.25
2023-01-03T02:38:07.822Z,11.22
2023-01-03T02:40:34.213Z,11.21
2023-01-03T02:43:00.530Z,11.16
2023-01-03T02:45:26.893Z,11.15
2023-01-03T02:47:53.257Z,11.12
2023-01-03T02:50:19.650Z,11.04
2023-01-03T02:52:46.023Z,11.05
2023-01-03T02:55:12.373Z,11.09
2023-01-03T02:57:38.702Z,11.11
2023-01-03T03:00:05.058Z,11.11
2023-01-03T03:02:31.588Z,11.10
2023-01-03T03:04:57.800Z,11.11
2023-01-03T03:07:24.125Z,11.11
2023-01-03T03:09:50.476Z,11.06
2023-01-03T03:12:16.838Z,11.04
2023-01-03T03:14:43.219Z,11.05
2023-01-03T03:17:09.600Z,11.07
2023-01-03T03:19:35.994Z,11.10
2023-01-03T03:22:02.304Z,11.07
2023-01-03T03:24:28.651Z,11.01
2023-01-03T03:26:54.977Z,11.01
2023-01-03T03:29:21.365Z,11.03
2023-01-03T03:31:47.769Z,11.00
2023-01-03T03:34:14.064Z,10.94
2023-01-03T03:36:40.386Z,10.89
2023-01-03T03:39:06.744Z,10.85
2023-01-03T03:41:33.109Z,10.84
2023-01-03T03:43:59.499Z,10.81
2023-01-03T03:46:25.834Z,10.82
2023-01-03T03:48:52.187Z,10.80
2023-01-03T03:51:18.505Z,10.79
2023-01-03T03:53:44.898Z,10.74
2023-01-03T03:56:11.219Z,10.65
2023-01-03T03:58:37.597Z,10.68
2023-01-03T04:01:03.915Z,10.71
2023-01-03T04:03:30.402Z,10.71
2023-01-03T04:05:56.668Z,10.70
2023-01-03T04:08:23.018Z,10.72
2023-01-03T04:10:49.396Z,10.70
2023-01-03T04:13:15.781Z,10.72
2023-01-03T04:15:42.164Z,10.62
2023-01-03T04:18:08.542Z,10.61
2023-01-03T04:20:34.856Z,10.58
2023-01-03T04:23:01.279Z,10.58
2023-01-03T04:25:27.568Z,10.56
2023-01-03T04:27:53.958Z,10.54
2023-01-03T04:30:20.317Z,10.52
2023-01-03T04:32:46.687Z,10.55
2023-01-03T04:35:13.004Z,10.55
2023-01-03T04:37:39.395Z,10.52
2023-01-03T04:40:05.707Z,10.45
2023-01-03T04:42:32.124Z,10.48
2023-01-03T04:44:58.417Z,10.41
2023-01-03T04:47:24.877Z,10.44
2023-01-03T04:49:51.200Z,10.41
2023-01-03T04:52:17.559Z,10.37
2023-01-03T04:54:43.874Z,10.38
2023-01-03T04:57:10.216Z,10.33
2023-01-03T04:59:36.596Z,10.25
2023-01-03T05:02:03.089Z,10.18
2023-01-03T05:04:29.338Z,10.19
2023-01-03T05:06:55.658Z,10.18
2023-01-03T05:09:22.018Z,10.18
2023-01-03T05:11:48.316Z,10.15
2023-01-03T05:14:14.963Z,10.16
2023-01-03T05:16:41.063Z,10.17
2023-01-03T05:19:07.367Z,10.19
2023-01-03T05:21:33.725Z,10.18
2023-01-03T05:24:00.152Z,10.13
2023-01-03T05:26:26.416Z,10.08
2023-01-03T05:28:52.772Z,10.09
2023-01-03T05:31:19.220Z,10.12
2023-01-03T05:33:45.487Z,10.04
2023-01-03T05:36:11.796Z,10.03
2023-01-03T05:38:38.165Z,10.55
2023-01-03T05:41:04.547Z,10.93
2023-01-03T05:43:30.924Z,10.94
2023-01-03T05:45:57.311Z,10.84
2023-01-03T05:48:23.598Z,10.75
2023-01-03T05:50:49.951Z,10.64
2023-01-03T05:53:16.291Z,10.61
2023-01-03T05:55:42.644Z,10.55
2023-01-03T05:58:08.963Z,10.47
2023-01-03T06:00:35.366Z,10.45
2023-01-03T06:03:01.820Z,10.38
2023-01-03T06:05:28.075Z,10.29
2023-01-03T06:07:54.456Z,10.23
2023-01-03T06:10:20.777Z,10.21
2023-01-03T06:12:47.192Z,10.20
2023-01-03T06:15:13.616Z,10.24
2023-01-03T06:17:39.891Z,10.26
2023-01-03T06:20:06.238Z,10.28
2023-01-03T06:22:32.609Z,10.30
2023-01-03T06:24:58.990Z,10.32
2023-01-03T06:27:25.388Z,10.36
2023-01-03T06:29:51.790Z,10.38
2023-01-03T06:32:18.130Z,10.48
2023-01-03T06:34:44.509Z,10.54
2023-01-03T06:37:10.823Z,10.59
2023-01-03T06:39:37.185Z,10.59
2023-01-03T06:42:03.553Z,10.59
2023-01-03T06:44:29.970Z,10.58
2023-01-03T06:46:56.289Z,10.54
2023-01-03T06:49:22.645Z,10.55
2023-01-03T06:51:48.949Z,10.55
2023-01-03T06:54:15.333Z,10.50
2023-01-03T06:56:41.776Z,10.53
2023-01-03T06:59:08.176Z,10.53
2023-01-03T07:01:34.624Z,10.55
2023-01-03T07:04:00.872Z,10.60
2023-01-03T07:06:28.540Z,10.71
2023-01-03T07:08:54.927Z,10.77
2023-01-03T07:11:21.250Z,10.88
2023-01-03T07:13:47.596Z,11.16
2023-01-03T07:16:13.964Z,11.51
2023-01-03T07:18:40.353Z,11.84
2023-01-03T07:21:06.713Z,12.11
2023-01-03T07:23:33.077Z,12.33
2023-01-03T07:25:59.473Z,12.51
2023-01-03T07:28:25.863Z,12.69
2023-01-03T07:30:52.260Z,12.90
2023-01-03T07:33:18.623Z,13.09
2023-01-03T07:35:44.940Z,13.23
2023-01-03T07:38:11.297Z,13.37
2023-01-03T07:40:37.623Z,13.54
2023-01-03T07:43:04.080Z,13.76
2023-01-03T07:45:30.427Z,13.95
2023-01-03T07:47:56.815Z,14.30
2023-01-03T07:50:23.166Z,14.69
2023-01-03T07:52:49.615Z,15.05
2023-01-03T07:55:15.931Z,15.45
2023-01-03T07:57:42.315Z,15.85
2023-01-03T08:00:08.645Z,16.19
2023-01-03T08:02:35.215Z,16.51
2023-01-03T08:05:01.545Z,16.81
2023-01-03T08:07:27.774Z,17.09
2023-01-03T08:09:54.159Z,17.36
2023-01-03T08:12:20.470Z,17.58
2023-01-03T08:14:46.872Z,17.80
2023-01-03T08:17:13.215Z,18.00
2023-01-03T08:19:45.296Z,18.23
2023-01-03T08:22:05.951Z,18.44
2023-01-03T08:24:32.343Z,18.71
2023-01-03T08:26:58.710Z,19.05
2023-01-03T08:29:25.046Z,19.43
2023-01-03T08:31:51.410Z,19.80
2023-01-03T08:34:22.291Z,20.19
2023-01-03T08:36:44.093Z,20.57
2023-01-03T08:39:10.431Z,20.93
2023-01-03T08:41:36.755Z,21.28
2023-01-03T08:44:03.324Z,21.65
2023-01-03T08:46:29.734Z,22.00
2023-01-03T08:48:56.118Z,22.33
2023-01-03T08:51:22.427Z,22.66
2023-01-03T08:53:48.774Z,22.96
2023-01-03T08:56:15.096Z,23.26
2023-01-03T08:58:41.484Z,23.54
2023-01-03T09:01:07.876Z,23.82
2023-01-03T09:03:34.370Z,24.08
2023-01-03T09:06:00.544Z,24.33
2023-01-03T09:08:26.941Z,24.53
2023-01-03T09:10:53.372Z,24.72
2023-01-03T09:13:19.850Z,24.86
2023-01-03T09:15:46.171Z,25.03
2023-01-03T09:18:12.491Z,25.23
2023-01-03T09:20:38.857Z,25.41
2023-01-03T09:23:05.204Z,25.57
2023-01-03T09:25:36.780Z,25.75
2023-01-03T09:27:57.946Z,25.94
2023-01-03T09:30:24.338Z,26.10
2023-01-03T09:32:50.745Z,26.24
2023-01-03T09:35:17.067Z,26.32
2023-01-03T09:37:48.731Z,26.40
2023-01-03T09:40:09.777Z,26.42
2023-01-03T09:42:36.163Z,26.42
2023-01-03T09:45:02.526Z,26.42
2023-01-03T09:47:28.853Z,26.54
2023-01-03T09:50:27.636Z,26.74
2023-01-03T09:52:21.571Z,26.96
2023-01-03T09:54:47.924Z,27.17
2023-01-03T09:57:14.349Z,27.36
2023-01-03T09:59:40.665Z,27.50
2023-01-03T10:02:07.258Z,27.53
2023-01-03T10:04:33.428Z,27.57
2023-01-03T10:06:59.813Z,27.61
2023-01-03T10:09:26.147Z,27.67
2023-01-03T10:11:52.474Z,27.75
2023-01-03T10:14:18.819Z,27.87
2023-01-03T10:16:45.219Z,28.01
2023-01-03T10:19:11.518Z,28.10
2023-01-03T10:21:37.912Z,28.20
2023-01-03T10:24:04.230Z,28.30
2023-01-03T10:26:32.973Z,28.44
2023-01-03T10:28:56.977Z,28.56
2023-01-03T10:31:23.383Z,28.65
2023-01-03T10:33:49.673Z,28.73
2023-01-03T10:36:16.072Z,28.82
2023-01-03T10:38:47.864Z,28.92
2023-01-03T10:41:08.780Z,29.01
2023-01-03T10:43:35.145Z,29.09
2023-01-03T10:46:01.550Z,29.16
2023-01-03T10:48:27.885Z,29.23
2023-01-03T10:50:54.228Z,29.30
2023-01-03T10:53:20.589Z,29.36
2023-01-03T10:55:46.968Z,29.42
2023-01-03T10:58:13.295Z,29.47
2023-01-03T11:00:39.681Z,29.50
2023-01-03T11:03:06.200Z,29.54
2023-01-03T11:05:32.423Z,29.55
2023-01-03T11:07:58.736Z,29.59
2023-01-03T11:10:25.116Z,29.64
2023-01-03T11:12:51.426Z,29.70
2023-01-03T11:15:17.826Z,29.76
2023-01-03T11:17:44.134Z,29.80
2023-01-03T11:20:10.554Z,29.84
2023-01-03T11:22:38.209Z,29.88
2023-01-03T11:25:03.292Z,29.92
2023-01-03T11:27:29.599Z,29.96
2023-01-03T11:29:55.988Z,30.00
2023-01-03T11:32:22.367Z,30.04
2023-01-03T11:35:21.562Z,30.07
2023-01-03T11:37:15.024Z,30.12
2023-01-03T11:39:41.404Z,30.16
2023-01-03T11:42:07.734Z,30.18
2023-01-03T11:44:34.067Z,30.21
2023-01-03T11:47:00.433Z,30.25
2023-01-03T11:49:26.794Z,30.29
2023-01-03T11:51:53.127Z,30.31
2023-01-03T11:54:19.496Z,30.34
2023-01-03T11:56:45.865Z,30.39
2023-01-03T11:59:12.270Z,30.48
2023-01-03T12:01:39.779Z,30.60
2023-01-03T12:04:04.983Z,30.72
2023-01-03T12:06:31.273Z,30.80
2023-01-03T12:08:57.636Z,30.86
2023-01-03T12:11:23.999Z,30.90
2023-01-03T12:13:50.338Z,30.93
2023-01-03T12:16:16.768Z,30.96
2023-01-03T12:18:43.050Z,30.98
2023-01-03T12:21:09.418Z,30.94
2023-01-03T12:23:35.746Z,30.87
2023-01-03T12:26:03.215Z,30.80
2023-01-03T12:28:29.555Z,30.74
2023-01-03T12:30:55.927Z,30.69
2023-01-03T12:33:22.237Z,30.62
2023-01-03T12:35:48.573Z,30.56
2023-01-03T12:38:14.981Z,30.59
2023-01-03T12:40:41.308Z,30.61
2023-01-03T12:43:07.683Z,30.59
2023-01-03T12:45:34.830Z,30.59
2023-01-03T12:48:00.374Z,30.57
2023-01-03T12:50:26.691Z,30.57
2023-01-03T12:52:53.040Z,30.57
2023-01-03T12:55:19.425Z,30.57
2023-01-03T12:57:45.785Z,30.56
2023-01-03T13:00:12.148Z,30.52
2023-01-03T13:02:38.645Z,30.49
2023-01-03T13:05:04.895Z,30.47
2023-01-03T13:07:31.282Z,30.46
2023-01-03T13:10:01.145Z,30.44
2023-01-03T13:12:23.976Z,30.40
2023-01-03T13:14:50.312Z,30.37
2023-01-03T13:17:16.687Z,30.31
2023-01-03T13:19:43.018Z,30.28
2023-01-03T13:22:09.364Z,30.23
2023-01-03T13:24:35.679Z,30.17
2023-01-03T13:27:02.074Z,30.10
2023-01-03T13:29:28.465Z,29.99
2023-01-03T13:31:54.861Z,29.88
2023-01-03T13:34:21.175Z,29.76
2023-01-03T13:36:47.610Z,29.65
2023-01-03T13:39:13.949Z,29.53
2023-01-03T13:41:40.310Z,29.41
2023-01-03T13:44:06.643Z,29.26
2023-01-03T13:46:33.122Z,29.11
2023-01-03T13:48:59.400Z,28.99
2023-01-03T13:51:25.737Z,28.87
2023-01-03T13:53:52.114Z,28.75
2023-01-03T13:56:18.490Z,28.64
2023-01-03T13:58:44.816Z,28.55
2023-01-03T14:01:11.240Z,28.44
2023-01-03T14:03:37.662Z,28.30
2023-01-03T14:06:03.943Z,28.18
2023-01-03T14:08:35.230Z,28.06
2023-01-03T14:10:56.714Z,28.04
2023-01-03T14:13:23.005Z,28.03
2023-01-03T14:15:49.498Z,27.89
2023-01-03T14:18:15.747Z,27.62
2023-01-03T14:20:42.160Z,27.34
2023-01-03T14:23:31.919Z,27.08
2023-01-03T14:25:34.868Z,26.83
2023-01-03T14:28:01.227Z,26.55
2023-01-03T14:30:27.594Z,26.30
2023-01-03T14:32:53.935Z,26.06
2023-01-03T14:35:20.286Z,25.84
2023-01-03T14:37:46.651Z,25.65
2023-01-03T14:40:13.023Z,25.39
2023-01-03T14:42:39.355Z,25.13
2023-01-03T14:45:05.720Z,24.91
2023-01-03T14:47:32.031Z,24.71
2023-01-03T14:49:58.411Z,24.66
2023-01-03T14:52:24.773Z,24.57
2023-01-03T14:54:51.167Z,24.65
2023-01-03T14:57:17.512Z,24.48
2023-01-03T14:59:43.900Z,24.28
2023-01-03T15:02:10.493Z,24.02
2023-01-03T15:04:36.646Z,23.83
2023-01-03T15:07:11.057Z,23.38
2023-01-03T15:09:29.323Z,22.93
2023-01-03T15:11:55.706Z,22.67
2023-01-03T15:14:22.045Z,22.44
2023-01-03T15:16:48.424Z,22.26
2023-01-03T15:19:14.810Z,22.11
2023-01-03T15:21:41.084Z,21.97
2023-01-03T15:24:07.454Z,21.89
2023-01-03T15:26:33.817Z,21.79
2023-01-03T15:29:00.226Z,21.70
2023-01-03T15:31:26.614Z,21.62
2023-01-03T15:33:52.975Z,21.53
2023-01-03T15:36:19.650Z,21.45
2023-01-03T15:38:45.662Z,21.30
2023-01-03T15:41:12.021Z,21.19
2023-01-03T15:43:38.383Z,21.17
2023-01-03T15:46:04.803Z,21.10
2023-01-03T15:48:31.064Z,21.01
2023-01-03T15:50:57.471Z,20.90
2023-01-03T15:53:23.856Z,20.82
2023-01-03T15:55:50.174Z,20.74
2023-01-03T15:58:16.533Z,20.65
2023-01-03T16:00:42.923Z,20.63
2023-01-03T16:03:09.272Z,20.57
2023-01-03T16:05:35.595Z,20.47
2023-01-03T16:08:01.943Z,20.44
2023-01-03T16:10:28.305Z,20.39
2023-01-03T16:12:54.655Z,20.33
2023-01-03T16:15:21.045Z,20.25
2023-01-03T16:17:47.413Z,20.22
2023-01-03T16:20:13.773Z,20.17
2023-01-03T16:22:48.608Z,20.13
2023-01-03T16:25:06.465Z,20.05
2023-01-03T16:27:32.859Z,19.94
2023-01-03T16:29:59.420Z,19.84
2023-01-03T16:32:25.605Z,19.72
2023-01-03T16:34:51.857Z,19.68
2023-01-03T16:37:18.233Z,19.61
2023-01-03T16:39:48.307Z,19.59
2023-01-03T16:42:10.935Z,19.60
2023-01-03T16:44:37.284Z,19.55
2023-01-03T16:47:03.658Z,19.50
2023-01-03T16:49:30.022Z,19.42
2023-01-03T16:51:57.915Z,19.39
2023-01-03T16:54:22.758Z,19.45
2023-01-03T16:56:49.131Z,19.43
2023-01-03T16:59:15.447Z,19.35
2023-01-03T17:01:41.926Z,19.29
2023-01-03T17:04:08.271Z,19.27
2023-01-03T17:06:38.366Z,19.20
2023-01-03T17:09:00.919Z,19.19
2023-01-03T17:11:27.261Z,19.17
2023-01-03T17:13:53.706Z,19.14
2023-01-03T17:16:20.106Z,19.06
2023-01-03T17:18:46.367Z,19.02
2023-01-03T17:21:12.718Z,18.99
2023-01-03T17:23:39.048Z,18.95
2023-01-03T17:26:05.451Z,18.94
2023-01-03T17:28:31.797Z,18.87
2023-01-03T17:30:58.260Z,18.89
2023-01-03T17:33:28.634Z,18.86
2023-01-03T17:35:50.911Z,18.78
2023-01-03T17:38:26.145Z,18.74
2023-01-03T17:40:43.685Z,18.70
2023-01-03T17:43:10.013Z,18.67
2023-01-03T17:45:36.401Z,18.65
2023-01-03T17:48:02.747Z,18.68
2023-01-03T17:50:29.109Z,18.64
2023-01-03T17:52:56.469Z,18.59
2023-01-03T17:55:21.831Z,18.58
2023-01-03T17:57:48.155Z,18.52
2023-01-03T18:00:14.560Z,18.46
2023-01-03T18:02:41.164Z,18.42
2023-01-03T18:05:19.942Z,18.35
2023-01-03T18:07:33.659Z,18.33
2023-01-03T18:10:00.077Z,18.30
2023-01-03T18:12:26.435Z,18.30
2023-01-03T18:14:52.811Z,18.25
2023-01-03T18:17:19.174Z,18.20
2023-01-03T18:19:45.564Z,18.15
2023-01-03T18:22:11.899Z,18.17
2023-01-03T18:24:38.251Z,18.20
2023-01-03T18:27:04.614Z,18.17
2023-01-03T18:29:30.927Z,18.09
2023-01-03T18:31:57.346Z,18.05
2023-01-03T18:34:23.844Z,18.01
2023-01-03T18:36:50.206Z,17.96
2023-01-03T18:39:16.575Z,17.95
2023-01-03T18:41:42.937Z,17.90
2023-01-03T18:44:09.354Z,17.89
2023-01-03T18:46:35.773Z,17.89
2023-01-03T18:49:02.035Z,17.88
2023-01-03T18:51:28.428Z,17.84
2023-01-03T18:53:54.774Z,17.83
2023-01-03T18:56:21.162Z,17.82
2023-01-03T18:58:47.488Z,17.77
2023-01-03T19:01:13.979Z,17.69
2023-01-03T19:03:40.399Z,17.67
2023-01-03T19:06:06.640Z,17.64
2023-01-03T19:08:33.046Z,17.62
2023-01-03T19:10:59.411Z,17.56
2023-01-03T19:13:25.735Z,17.55
2023-01-03T19:15:52.143Z,17.51
2023-01-03T19:18:18.461Z,17.45
2023-01-03T19:20:44.867Z,17.44
2023-01-03T19:23:11.234Z,17.43
2023-01-03T19:25:37.607Z,17.42
2023-01-03T19:28:03.979Z,17.37
2023-01-03T19:30:36.977Z,17.36
2023-01-03T19:32:56.692Z,17.33
2023-01-03T19:35:23.063Z,17.32
2023-01-03T19:37:49.424Z,17.28
2023-01-03T19:40:15.766Z,17.30
2023-01-03T19:42:42.135Z,17.36
2023-01-03T19:45:08.517Z,17.36
2023-01-03T19:47:34.902Z,17.34
2023-01-03T19:50:06.232Z,17.30
2023-01-03T19:52:27.649Z,17.22
2023-01-03T19:54:54.032Z,17.23
2023-01-03T19:57:20.365Z,17.20
2023-01-03T19:59:46.747Z,17.17
2023-01-03T20:02:28.618Z,17.17
2023-01-03T20:04:39.591Z,17.10
2023-01-03T20:07:05.852Z,17.09
2023-01-03T20:09:32.376Z,17.10
2023-01-03T20:11:58.692Z,17.10
2023-01-03T20:14:25.110Z,17.08
2023-01-03T20:16:51.481Z,17.03
2023-01-03T20:19:17.863Z,17.03
2023-01-03T20:21:44.217Z,17.03
2023-01-03T20:24:10.543Z,17.01
2023-01-03T20:26:36.869Z,16.95
2023-01-03T20:29:03.215Z,16.92
2023-01-03T20:31:29.685Z,16.89
2023-01-03T20:33:56.058Z,16.90
2023-01-03T20:36:23.721Z,16.91
2023-01-03T20:38:48.769Z,16.88
2023-01-03T20:41:15.125Z,16.83
2023-01-03T20:43:41.512Z,16.81
2023-01-03T20:46:07.883Z,16.69
2023-01-03T20:48:34.227Z,16.61
2023-01-03T20:51:00.611Z,16.56
2023-01-03T20:53:27.021Z,16.49
2023-01-03T20:55:53.359Z,16.42
2023-01-03T20:58:19.676Z,16.37
2023-01-03T21:00:46.198Z,16.33
2023-01-03T21:03:12.650Z,16.21
2023-01-03T21:05:38.850Z,16.07
2023-01-03T21:08:05.260Z,16.04
2023-01-03T21:10:31.537Z,16.08
2023-01-03T21:12:57.936Z,16.08
2023-01-03T21:15:24.296Z,16.06
2023-01-03T21:17:51.308Z,16.08
2023-01-03T21:20:17.054Z,15.96
2023-01-03T21:22:43.389Z,15.87
2023-01-03T21:25:09.779Z,15.88
2023-01-03T21:27:36.115Z,15.86
2023-01-03T21:30:02.476Z,15.84
2023-01-03T21:32:28.808Z,15.76
2023-01-03T21:34:55.156Z,15.74
2023-01-03T21:37:21.495Z,15.74
2023-01-03T21:39:47.818Z,15.68
2023-01-03T21:42:14.203Z,15.61
2023-01-03T21:44:40.594Z,15.54
2023-01-03T21:47:06.986Z,15.52
2023-01-03T21:49:33.300Z,15.56
2023-01-03T21:51:59.644Z,15.57
2023-01-03T21:54:25.971Z,15.56
2023-01-03T21:56:52.363Z,15.50
2023-01-03T21:59:18.738Z,15.52
2023-01-03T22:01:45.194Z,15.48
2023-01-03T22:04:11.482Z,15.48
2023-01-03T22:06:37.789Z,15.42
2023-01-03T22:09:04.117Z,15.38
2023-01-03T22:11:30.491Z,15.36
2023-01-03T22:13:56.863Z,15.31
2023-01-03T22:16:23.361Z,15.27
2023-01-03T22:18:49.584Z,15.27
2023-01-03T22:21:15.966Z,15.23
2023-01-03T22:23:42.292Z,15.24
2023-01-03T22:26:08.651Z,15.19
2023-01-03T22:28:35.059Z,15.11
2023-01-03T22:31:01.415Z,15.00
2023-01-03T22:33:27.747Z,14.96
2023-01-03T22:35:54.190Z,14.97
2023-01-03T22:38:20.503Z,15.01
2023-01-03T22:40:46.846Z,14.99
2023-01-03T22:43:13.211Z,15.00
2023-01-03T22:45:39.650Z,15.00
2023-01-03T22:48:05.995Z,15.03
2023-01-03T22:50:32.363Z,15.04
2023-01-03T22:52:58.685Z,14.99
2023-01-03T22:55:28.352Z,14.93
2023-01-03T22:57:51.415Z,14.86
2023-01-03T23:00:17.757Z,14.82
2023-01-03T23:02:44.137Z,14.70
2023-01-03T23:05:10.435Z,14.63
2023-01-03T23:07:36.761Z,14.63
2023-01-03T23:10:03.151Z,14.63
2023-01-03T23:12:29.470Z,14.63
2023-01-03T23:14:55.856Z,14.62
2023-01-03T23:17:22.248Z,14.63
2023-01-03T23:19:48.590Z,14.62
2023-01-03T23:22:14.907Z,14.62
2023-01-03T23:24:41.333Z,14.64
2023-01-03T23:27:07.667Z,14.52
2023-01-03T23:29:34.060Z,14.39
2023-01-03T23:32:00.444Z,14.36
2023-01-03T23:34:26.838Z,14.42
2023-01-03T23:36:53.122Z,14.51
2023-01-03T23:39:19.460Z,14.50
2023-01-03T23:41:45.932Z,14.50
2023-01-03T23:44:12.275Z,14.48
2023-01-03T23:46:38.641Z,14.48
2023-01-03T23:49:04.985Z,14.47
2023-01-03T23:51:31.301Z,14.49
2023-01-03T23:53:57.681Z,14.47
2023-01-03T23:56:23.997Z,14.43
2023-01-03T23:58:50.397Z,14.37
